sensor_id;sensor_type;location;lat;lon;timestamp;P1;durP1;ratioP1;P2;durP2;ratioP2
23730;SDS011;12046;44.702;10.622;2023-09-12T00:00:54;7.20;;;6.53;;
23730;SDS011;12046;44.702;10.622;2023-09-12T00:03:30;7.18;;;6.55;;
23730;SDS011;12046;44.702;10.622;2023-09-12T00:05:58;6.70;;;6.18;;
23730;SDS011;12046;44.702;10.622;2023-09-12T00:08:34;6.80;;;6.22;;
23730;SDS011;12046;44.702;10.622;2023-09-12T00:11:06;6.32;;;5.82;;
23730;SDS011;12046;44.702;10.622;2023-09-12T00:13:39;6.45;;;5.82;;
23730;SDS011;12046;44.702;10.622;2023-09-12T00:16:08;7.60;;;6.60;;
23730;SDS011;12046;44.702;10.622;2023-09-12T00:18:40;7.25;;;6.55;;
23730;SDS011;12046;44.702;10.622;2023-09-12T00:21:07;7.22;;;6.63;;
23730;SDS011;12046;44.702;10.622;2023-09-12T00:23:33;7.32;;;6.65;;
23730;SDS011;12046;44.702;10.622;2023-09-12T00:26:04;7.57;;;6.97;;
23730;SDS011;12046;44.702;10.622;2023-09-12T00:28:33;7.15;;;6.65;;
23730;SDS011;12046;44.702;10.622;2023-09-12T00:30:59;7.20;;;6.50;;
23730;SDS011;12046;44.702;10.622;2023-09-12T00:33:31;7.78;;;7.18;;
23730;SDS011;12046;44.702;10.622;2023-09-12T00:35:59;7.38;;;6.80;;
23730;SDS011;12046;44.702;10.622;2023-09-12T00:39:06;7.93;;;7.22;;
23730;SDS011;12046;44.702;10.622;2023-09-12T00:41:31;7.82;;;7.13;;
23730;SDS011;12046;44.702;10.622;2023-09-12T00:44:03;7.35;;;6.75;;
23730;SDS011;12046;44.702;10.622;2023-09-12T00:46:32;7.45;;;6.85;;
23730;SDS011;12046;44.702;10.622;2023-09-12T00:48:59;7.75;;;7.05;;
23730;SDS011;12046;44.702;10.622;2023-09-12T00:51:34;7.88;;;7.18;;
23730;SDS011;12046;44.702;10.622;2023-09-12T00:54:04;7.38;;;6.75;;
23730;SDS011;12046;44.702;10.622;2023-09-12T00:56:33;7.85;;;7.25;;
23730;SDS011;12046;44.702;10.622;2023-09-12T00:59:05;7.57;;;6.97;;
23730;SDS011;12046;44.702;10.622;2023-09-12T01:01:31;7.57;;;6.88;;
23730;SDS011;12046;44.702;10.622;2023-09-12T01:04:01;7.95;;;7.35;;
23730;SDS011;12046;44.702;10.622;2023-09-12T01:06:33;7.65;;;6.95;;
23730;SDS011;12046;44.702;10.622;2023-09-12T01:09:12;7.60;;;6.85;;
23730;SDS011;12046;44.702;10.622;2023-09-12T01:11:44;6.95;;;6.35;;
23730;SDS011;12046;44.702;10.622;2023-09-12T01:14:13;7.47;;;6.85;;
23730;SDS011;12046;44.702;10.622;2023-09-12T01:16:41;7.25;;;6.65;;
23730;SDS011;12046;44.702;10.622;2023-09-12T01:19:19;8.05;;;7.35;;
23730;SDS011;12046;44.702;10.622;2023-09-12T01:28:38;7.30;;;6.63;;
23730;SDS011;12046;44.702;10.622;2023-09-12T01:32:21;7.72;;;7.05;;
23730;SDS011;12046;44.702;10.622;2023-09-12T01:34:47;7.32;;;6.80;;
23730;SDS011;12046;44.702;10.622;2023-09-12T01:40:20;7.45;;;6.85;;
23730;SDS011;12046;44.702;10.622;2023-09-12T01:42:58;6.63;;;6.13;;
23730;SDS011;12046;44.702;10.622;2023-09-12T01:45:27;6.68;;;6.18;;
23730;SDS011;12046;44.702;10.622;2023-09-12T01:47:53;6.28;;;5.78;;
23730;SDS011;12046;44.702;10.622;2023-09-12T01:50:35;5.90;;;5.50;;
23730;SDS011;12046;44.702;10.622;2023-09-12T01:53:16;5.95;;;5.45;;
23730;SDS011;12046;44.702;10.622;2023-09-12T02:04:27;5.72;;;5.32;;
23730;SDS011;12046;44.702;10.622;2023-09-12T02:07:50;6.18;;;5.57;;
23730;SDS011;12046;44.702;10.622;2023-09-12T02:10:16;5.85;;;5.35;;
23730;SDS011;12046;44.702;10.622;2023-09-12T02:43:31;6.50;;;6.00;;
23730;SDS011;12046;44.702;10.622;2023-09-12T02:45:57;6.28;;;5.78;;
23730;SDS011;12046;44.702;10.622;2023-09-12T02:48:23;6.15;;;5.75;;
23730;SDS011;12046;44.702;10.622;2023-09-12T02:50:49;6.65;;;6.15;;
23730;SDS011;12046;44.702;10.622;2023-09-12T02:53:14;6.55;;;5.95;;
23730;SDS011;12046;44.702;10.622;2023-09-12T02:55:42;6.88;;;6.28;;
23730;SDS011;12046;44.702;10.622;2023-09-12T02:58:08;8.55;;;6.80;;
23730;SDS011;12046;44.702;10.622;2023-09-12T03:00:37;6.68;;;6.03;;
23730;SDS011;12046;44.702;10.622;2023-09-12T03:03:05;7.43;;;6.82;;
23730;SDS011;12046;44.702;10.622;2023-09-12T03:05:31;7.03;;;6.43;;
23730;SDS011;12046;44.702;10.622;2023-09-12T03:07:59;7.43;;;6.72;;
23730;SDS011;12046;44.702;10.622;2023-09-12T03:10:52;7.38;;;6.78;;
23730;SDS011;12046;44.702;10.622;2023-09-12T03:13:23;6.80;;;6.30;;
23730;SDS011;12046;44.702;10.622;2023-09-12T03:15:53;7.07;;;6.57;;
23730;SDS011;12046;44.702;10.622;2023-09-12T03:18:27;7.75;;;7.15;;
23730;SDS011;12046;44.702;10.622;2023-09-12T03:20:52;7.85;;;7.25;;
23730;SDS011;12046;44.702;10.622;2023-09-12T03:23:21;7.07;;;6.47;;
23730;SDS011;12046;44.702;10.622;2023-09-12T03:25:47;7.55;;;6.95;;
23730;SDS011;12046;44.702;10.622;2023-09-12T03:28:16;7.95;;;7.35;;
23730;SDS011;12046;44.702;10.622;2023-09-12T03:30:42;7.63;;;7.03;;
23730;SDS011;12046;44.702;10.622;2023-09-12T03:33:07;7.50;;;6.90;;
23730;SDS011;12046;44.702;10.622;2023-09-12T03:35:39;8.05;;;7.35;;
23730;SDS011;12046;44.702;10.622;2023-09-12T03:38:35;8.00;;;7.38;;
23730;SDS011;12046;44.702;10.622;2023-09-12T03:41:24;8.60;;;8.00;;
23730;SDS011;12046;44.702;10.622;2023-09-12T03:43:53;8.38;;;7.60;;
23730;SDS011;12046;44.702;10.622;2023-09-12T03:46:19;8.60;;;7.80;;
23730;SDS011;12046;44.702;10.622;2023-09-12T03:48:47;8.52;;;7.93;;
23730;SDS011;12046;44.702;10.622;2023-09-12T03:51:14;8.57;;;7.88;;
23730;SDS011;12046;44.702;10.622;2023-09-12T03:53:39;8.68;;;7.97;;
23730;SDS011;12046;44.702;10.622;2023-09-12T03:56:17;8.98;;;8.25;;
23730;SDS011;12046;44.702;10.622;2023-09-12T03:58:45;9.55;;;8.70;;
23730;SDS011;12046;44.702;10.622;2023-09-12T04:01:11;8.98;;;8.23;;
23730;SDS011;12046;44.702;10.622;2023-09-12T04:03:37;8.93;;;8.20;;
23730;SDS011;12046;44.702;10.622;2023-09-12T04:06:03;8.82;;;8.18;;
23730;SDS011;12046;44.702;10.622;2023-09-12T04:08:29;9.60;;;8.70;;
23730;SDS011;12046;44.702;10.622;2023-09-12T04:10:54;9.55;;;8.82;;
23730;SDS011;12046;44.702;10.622;2023-09-12T04:13:23;9.52;;;8.82;;
23730;SDS011;12046;44.702;10.622;2023-09-12T04:15:49;8.98;;;8.27;;
23730;SDS011;12046;44.702;10.622;2023-09-12T04:18:15;9.52;;;8.73;;
23730;SDS011;12046;44.702;10.622;2023-09-12T04:20:40;9.00;;;8.27;;
23730;SDS011;12046;44.702;10.622;2023-09-12T04:23:06;8.13;;;7.50;;
23730;SDS011;12046;44.702;10.622;2023-09-12T04:25:32;8.80;;;8.00;;
23730;SDS011;12046;44.702;10.622;2023-09-12T04:27:58;8.98;;;8.18;;
23730;SDS011;12046;44.702;10.622;2023-09-12T04:30:24;8.52;;;7.82;;
23730;SDS011;12046;44.702;10.622;2023-09-12T04:32:50;8.70;;;7.85;;
23730;SDS011;12046;44.702;10.622;2023-09-12T04:35:16;8.85;;;8.05;;
23730;SDS011;12046;44.702;10.622;2023-09-12T04:37:44;8.82;;;8.02;;
23730;SDS011;12046;44.702;10.622;2023-09-12T04:40:11;9.75;;;8.90;;
23730;SDS011;12046;44.702;10.622;2023-09-12T04:42:36;9.70;;;8.90;;
23730;SDS011;12046;44.702;10.622;2023-09-12T04:45:02;9.95;;;9.05;;
23730;SDS011;12046;44.702;10.622;2023-09-12T04:47:28;8.77;;;8.07;;
23730;SDS011;12046;44.702;10.622;2023-09-12T04:49:54;9.73;;;8.75;;
23730;SDS011;12046;44.702;10.622;2023-09-12T04:52:20;9.30;;;8.60;;
23730;SDS011;12046;44.702;10.622;2023-09-12T04:54:46;8.65;;;7.95;;
23730;SDS011;12046;44.702;10.622;2023-09-12T04:57:12;9.70;;;8.88;;
23730;SDS011;12046;44.702;10.622;2023-09-12T04:59:37;9.88;;;9.07;;
23730;SDS011;12046;44.702;10.622;2023-09-12T05:02:03;9.75;;;8.95;;
23730;SDS011;12046;44.702;10.622;2023-09-12T05:04:29;10.10;;;9.10;;
23730;SDS011;12046;44.702;10.622;2023-09-12T05:06:55;9.63;;;8.82;;
23730;SDS011;12046;44.702;10.622;2023-09-12T05:09:20;9.85;;;9.02;;
23730;SDS011;12046;44.702;10.622;2023-09-12T05:11:46;10.27;;;9.38;;
23730;SDS011;12046;44.702;10.622;2023-09-12T05:14:12;10.30;;;9.30;;
23730;SDS011;12046;44.702;10.622;2023-09-12T05:16:38;11.02;;;9.93;;
23730;SDS011;12046;44.702;10.622;2023-09-12T05:19:04;9.55;;;8.65;;
23730;SDS011;12046;44.702;10.622;2023-09-12T05:21:30;9.55;;;8.75;;
23730;SDS011;12046;44.702;10.622;2023-09-12T05:23:56;9.10;;;8.30;;
23730;SDS011;12046;44.702;10.622;2023-09-12T05:26:21;9.52;;;8.73;;
23730;SDS011;12046;44.702;10.622;2023-09-12T05:28:47;10.60;;;9.38;;
23730;SDS011;12046;44.702;10.622;2023-09-12T05:31:13;10.82;;;9.73;;
23730;SDS011;12046;44.702;10.622;2023-09-12T05:33:39;10.10;;;9.30;;
23730;SDS011;12046;44.702;10.622;2023-09-12T05:36:05;9.88;;;9.07;;
23730;SDS011;12046;44.702;10.622;2023-09-12T05:38:31;9.93;;;9.05;;
23730;SDS011;12046;44.702;10.622;2023-09-12T05:40:56;10.55;;;9.65;;
23730;SDS011;12046;44.702;10.622;2023-09-12T05:43:22;10.05;;;9.20;;
23730;SDS011;12046;44.702;10.622;2023-09-12T05:45:48;11.85;;;10.95;;
23730;SDS011;12046;44.702;10.622;2023-09-12T05:48:14;11.98;;;9.85;;
23730;SDS011;12046;44.702;10.622;2023-09-12T05:50:40;10.27;;;9.48;;
23730;SDS011;12046;44.702;10.622;2023-09-12T05:53:08;10.63;;;9.80;;
23730;SDS011;12046;44.702;10.622;2023-09-12T05:55:33;11.77;;;10.68;;
23730;SDS011;12046;44.702;10.622;2023-09-12T05:57:59;11.63;;;10.60;;
23730;SDS011;12046;44.702;10.622;2023-09-12T06:00:28;10.63;;;9.60;;
23730;SDS011;12046;44.702;10.622;2023-09-12T06:02:54;10.70;;;9.75;;
23730;SDS011;12046;44.702;10.622;2023-09-12T06:05:20;11.60;;;10.63;;
23730;SDS011;12046;44.702;10.622;2023-09-12T06:07:45;11.95;;;10.75;;
23730;SDS011;12046;44.702;10.622;2023-09-12T06:10:14;10.05;;;9.15;;
23730;SDS011;12046;44.702;10.622;2023-09-12T06:12:40;10.40;;;9.50;;
23730;SDS011;12046;44.702;10.622;2023-09-12T06:15:06;9.90;;;8.65;;
23730;SDS011;12046;44.702;10.622;2023-09-12T06:17:32;9.77;;;8.65;;
23730;SDS011;12046;44.702;10.622;2023-09-12T06:19:57;9.27;;;8.48;;
23730;SDS011;12046;44.702;10.622;2023-09-12T06:22:23;8.95;;;8.15;;
23730;SDS011;12046;44.702;10.622;2023-09-12T06:24:52;8.52;;;7.82;;
23730;SDS011;12046;44.702;10.622;2023-09-12T06:27:18;8.20;;;7.50;;
23730;SDS011;12046;44.702;10.622;2023-09-12T06:29:49;8.80;;;8.07;;
23730;SDS011;12046;44.702;10.622;2023-09-12T06:32:18;8.07;;;7.47;;
23730;SDS011;12046;44.702;10.622;2023-09-12T06:34:44;8.20;;;7.40;;
23730;SDS011;12046;44.702;10.622;2023-09-12T06:37:10;8.32;;;7.60;;
23730;SDS011;12046;44.702;10.622;2023-09-12T06:39:37;8.73;;;8.00;;
23730;SDS011;12046;44.702;10.622;2023-09-12T06:42:03;8.77;;;8.00;;
23730;SDS011;12046;44.702;10.622;2023-09-12T06:44:29;8.13;;;7.47;;
23730;SDS011;12046;44.702;10.622;2023-09-12T06:46:54;9.20;;;8.40;;
23730;SDS011;12046;44.702;10.622;2023-09-12T06:49:20;8.60;;;7.90;;
23730;SDS011;12046;44.702;10.622;2023-09-12T06:51:46;7.85;;;7.25;;
23730;SDS011;12046;44.702;10.622;2023-09-12T06:54:12;8.88;;;7.97;;
23730;SDS011;12046;44.702;10.622;2023-09-12T06:56:38;8.82;;;8.02;;
23730;SDS011;12046;44.702;10.622;2023-09-12T06:59:06;10.30;;;8.88;;
23730;SDS011;12046;44.702;10.622;2023-09-12T07:01:32;9.20;;;8.32;;
23730;SDS011;12046;44.702;10.622;2023-09-12T07:03:58;8.13;;;7.53;;
23730;SDS011;12046;44.702;10.622;2023-09-12T07:06:24;7.80;;;7.20;;
23730;SDS011;12046;44.702;10.622;2023-09-12T07:08:50;7.43;;;6.88;;
23730;SDS011;12046;44.702;10.622;2023-09-12T07:11:16;7.82;;;7.22;;
23730;SDS011;12046;44.702;10.622;2023-09-12T07:13:44;7.93;;;7.22;;
23730;SDS011;12046;44.702;10.622;2023-09-12T07:16:10;7.35;;;6.70;;
23730;SDS011;12046;44.702;10.622;2023-09-12T07:18:36;7.30;;;6.80;;
23730;SDS011;12046;44.702;10.622;2023-09-12T07:21:02;6.55;;;6.05;;
23730;SDS011;12046;44.702;10.622;2023-09-12T07:23:29;6.63;;;6.10;;
23730;SDS011;12046;44.702;10.622;2023-09-12T07:25:56;7.60;;;6.90;;
23730;SDS011;12046;44.702;10.622;2023-09-12T07:28:25;7.25;;;6.65;;
23730;SDS011;12046;44.702;10.622;2023-09-12T07:30:51;5.70;;;5.30;;
23730;SDS011;12046;44.702;10.622;2023-09-12T07:33:17;7.60;;;6.30;;
23730;SDS011;12046;44.702;10.622;2023-09-12T07:35:43;9.00;;;7.30;;
23730;SDS011;12046;44.702;10.622;2023-09-12T07:38:09;6.53;;;5.97;;
23730;SDS011;12046;44.702;10.622;2023-09-12T07:40:35;7.55;;;6.80;;
23730;SDS011;12046;44.702;10.622;2023-09-12T07:43:01;6.97;;;6.38;;
23730;SDS011;12046;44.702;10.622;2023-09-12T07:45:27;6.50;;;6.00;;
23730;SDS011;12046;44.702;10.622;2023-09-12T07:47:54;6.38;;;5.78;;
23730;SDS011;12046;44.702;10.622;2023-09-12T07:50:20;6.95;;;6.45;;
23730;SDS011;12046;44.702;10.622;2023-09-12T07:52:46;6.25;;;5.68;;
23730;SDS011;12046;44.702;10.622;2023-09-12T07:55:12;6.55;;;5.95;;
23730;SDS011;12046;44.702;10.622;2023-09-12T07:57:38;8.05;;;7.30;;
23730;SDS011;12046;44.702;10.622;2023-09-12T08:00:04;7.35;;;6.75;;
23730;SDS011;12046;44.702;10.622;2023-09-12T08:02:34;7.00;;;6.50;;
23730;SDS011;12046;44.702;10.622;2023-09-12T08:05:00;7.07;;;6.55;;
23730;SDS011;12046;44.702;10.622;2023-09-12T08:07:26;6.93;;;6.22;;
23730;SDS011;12046;44.702;10.622;2023-09-12T08:09:52;6.35;;;5.90;;
23730;SDS011;12046;44.702;10.622;2023-09-12T08:12:23;6.00;;;5.55;;
23730;SDS011;12046;44.702;10.622;2023-09-12T08:14:51;5.68;;;5.28;;
23730;SDS011;12046;44.702;10.622;2023-09-12T08:17:18;5.75;;;5.28;;
23730;SDS011;12046;44.702;10.622;2023-09-12T08:19:44;6.65;;;6.05;;
23730;SDS011;12046;44.702;10.622;2023-09-12T08:22:11;6.65;;;6.10;;
23730;SDS011;12046;44.702;10.622;2023-09-12T08:24:37;6.25;;;5.65;;
23730;SDS011;12046;44.702;10.622;2023-09-12T08:27:04;6.70;;;5.25;;
23730;SDS011;12046;44.702;10.622;2023-09-12T08:29:31;5.70;;;5.30;;
23730;SDS011;12046;44.702;10.622;2023-09-12T08:31:58;6.00;;;5.50;;
23730;SDS011;12046;44.702;10.622;2023-09-12T08:34:24;6.30;;;5.80;;
23730;SDS011;12046;44.702;10.622;2023-09-12T08:36:50;6.07;;;5.57;;
23730;SDS011;12046;44.702;10.622;2023-09-12T08:39:18;6.50;;;5.82;;
23730;SDS011;12046;44.702;10.622;2023-09-12T08:41:51;6.15;;;5.55;;
23730;SDS011;12046;44.702;10.622;2023-09-12T08:44:18;5.82;;;5.43;;
23730;SDS011;12046;44.702;10.622;2023-09-12T08:46:45;5.90;;;5.47;;
23730;SDS011;12046;44.702;10.622;2023-09-12T08:49:11;6.15;;;5.65;;
23730;SDS011;12046;44.702;10.622;2023-09-12T08:51:38;6.00;;;5.50;;
23730;SDS011;12046;44.702;10.622;2023-09-12T08:54:07;6.30;;;5.68;;
23730;SDS011;12046;44.702;10.622;2023-09-12T08:56:35;5.60;;;5.20;;
23730;SDS011;12046;44.702;10.622;2023-09-12T08:59:02;6.00;;;5.50;;
23730;SDS011;12046;44.702;10.622;2023-09-12T09:01:29;5.40;;;5.00;;
23730;SDS011;12046;44.702;10.622;2023-09-12T09:03:56;5.88;;;5.28;;
23730;SDS011;12046;44.702;10.622;2023-09-12T09:06:22;6.55;;;5.90;;
23730;SDS011;12046;44.702;10.622;2023-09-12T09:08:49;6.40;;;5.80;;
23730;SDS011;12046;44.702;10.622;2023-09-12T09:11:18;6.22;;;5.65;;
23730;SDS011;12046;44.702;10.622;2023-09-12T09:13:44;6.40;;;5.85;;
23730;SDS011;12046;44.702;10.622;2023-09-12T09:18:51;6.82;;;5.75;;
23730;SDS011;12046;44.702;10.622;2023-09-12T09:21:18;6.30;;;5.70;;
23730;SDS011;12046;44.702;10.622;2023-09-12T09:23:45;6.18;;;5.68;;
23730;SDS011;12046;44.702;10.622;2023-09-12T09:26:12;5.93;;;5.43;;
23730;SDS011;12046;44.702;10.622;2023-09-12T09:28:38;5.60;;;5.20;;
23730;SDS011;12046;44.702;10.622;2023-09-12T09:31:05;5.80;;;5.32;;
23730;SDS011;12046;44.702;10.622;2023-09-12T09:33:36;5.80;;;5.40;;
23730;SDS011;12046;44.702;10.622;2023-09-12T09:36:04;7.28;;;6.53;;
23730;SDS011;12046;44.702;10.622;2023-09-12T09:38:31;7.88;;;7.07;;
23730;SDS011;12046;44.702;10.622;2023-09-12T09:40:59;7.10;;;6.40;;
23730;SDS011;12046;44.702;10.622;2023-09-12T09:43:25;8.35;;;7.55;;
23730;SDS011;12046;44.702;10.622;2023-09-12T09:45:50;9.00;;;8.10;;
23730;SDS011;12046;44.702;10.622;2023-09-12T09:48:17;7.15;;;6.40;;
23730;SDS011;12046;44.702;10.622;2023-09-12T09:50:44;6.50;;;5.90;;
23730;SDS011;12046;44.702;10.622;2023-09-12T09:53:10;6.40;;;5.72;;
23730;SDS011;12046;44.702;10.622;2023-09-12T09:55:36;5.88;;;5.38;;
23730;SDS011;12046;44.702;10.622;2023-09-12T09:58:02;5.53;;;5.05;;
23730;SDS011;12046;44.702;10.622;2023-09-12T10:00:30;5.50;;;5.00;;
23730;SDS011;12046;44.702;10.622;2023-09-12T10:03:01;6.10;;;5.60;;
23730;SDS011;12046;44.702;10.622;2023-09-12T10:05:29;6.35;;;5.75;;
23730;SDS011;12046;44.702;10.622;2023-09-12T10:07:57;6.68;;;5.47;;
23730;SDS011;12046;44.702;10.622;2023-09-12T10:10:25;5.38;;;4.97;;
23730;SDS011;12046;44.702;10.622;2023-09-12T10:12:57;7.03;;;6.53;;
23730;SDS011;12046;44.702;10.622;2023-09-12T10:15:26;6.03;;;5.53;;
23730;SDS011;12046;44.702;10.622;2023-09-12T10:17:59;6.80;;;6.28;;
23730;SDS011;12046;44.702;10.622;2023-09-12T10:46:29;6.22;;;5.82;;
23730;SDS011;12046;44.702;10.622;2023-09-12T10:48:55;5.93;;;5.43;;
23730;SDS011;12046;44.702;10.622;2023-09-12T13:33:03;5.93;;;5.45;;
23730;SDS011;12046;44.702;10.622;2023-09-12T14:44:16;5.28;;;4.85;;
23730;SDS011;12046;44.702;10.622;2023-09-12T14:56:47;5.63;;;5.18;;
23730;SDS011;12046;44.702;10.622;2023-09-12T14:59:13;5.10;;;4.80;;
23730;SDS011;12046;44.702;10.622;2023-09-12T15:01:41;5.78;;;5.22;;
23730;SDS011;12046;44.702;10.622;2023-09-12T15:04:19;5.18;;;4.78;;
23730;SDS011;12046;44.702;10.622;2023-09-12T15:38:39;5.13;;;4.72;;
23730;SDS011;12046;44.702;10.622;2023-09-12T16:53:29;6.00;;;5.50;;
23730;SDS011;12046;44.702;10.622;2023-09-12T16:55:54;4.82;;;4.43;;
23730;SDS011;12046;44.702;10.622;2023-09-12T16:58:29;4.95;;;4.55;;
23730;SDS011;12046;44.702;10.622;2023-09-12T17:01:02;5.45;;;4.97;;
23730;SDS011;12046;44.702;10.622;2023-09-12T17:06:45;4.60;;;4.30;;
23730;SDS011;12046;44.702;10.622;2023-09-12T17:09:14;4.72;;;4.40;;
23730;SDS011;12046;44.702;10.622;2023-09-12T17:12:02;5.00;;;4.50;;
23730;SDS011;12046;44.702;10.622;2023-09-12T17:14:28;5.05;;;4.65;;
23730;SDS011;12046;44.702;10.622;2023-09-12T17:19:47;4.90;;;4.50;;
23730;SDS011;12046;44.702;10.622;2023-09-12T17:26:07;4.72;;;4.32;;
23730;SDS011;12046;44.702;10.622;2023-09-12T17:28:32;4.85;;;4.50;;
23730;SDS011;12046;44.702;10.622;2023-09-12T17:30:58;5.50;;;5.00;;
23730;SDS011;12046;44.702;10.622;2023-09-12T17:46:23;5.97;;;5.35;;
23730;SDS011;12046;44.702;10.622;2023-09-12T17:51:42;6.47;;;5.87;;
23730;SDS011;12046;44.702;10.622;2023-09-12T19:27:56;7.63;;;7.03;;
23730;SDS011;12046;44.702;10.622;2023-09-12T19:34:04;7.43;;;6.82;;
23730;SDS011;12046;44.702;10.622;2023-09-12T19:39:29;7.63;;;6.93;;
23730;SDS011;12046;44.702;10.622;2023-09-12T19:41:55;7.85;;;7.15;;
23730;SDS011;12046;44.702;10.622;2023-09-12T19:53:50;7.10;;;6.50;;
23730;SDS011;12046;44.702;10.622;2023-09-12T19:56:17;6.90;;;6.15;;
23730;SDS011;12046;44.702;10.622;2023-09-12T20:08:09;6.70;;;6.07;;
23730;SDS011;12046;44.702;10.622;2023-09-12T20:10:43;7.03;;;6.50;;
23730;SDS011;12046;44.702;10.622;2023-09-12T20:45:32;7.57;;;6.70;;
23730;SDS011;12046;44.702;10.622;2023-09-12T23:06:20;7.78;;;7.18;;
23730;SDS011;12046;44.702;10.622;2023-09-12T23:08:45;8.88;;;7.95;;
23730;SDS011;12046;44.702;10.622;2023-09-12T23:14:12;9.88;;;7.97;;
23730;SDS011;12046;44.702;10.622;2023-09-12T23:19:50;8.75;;;8.05;;
23730;SDS011;12046;44.702;10.622;2023-09-12T23:30:03;8.27;;;7.53;;
23730;SDS011;12046;44.702;10.622;2023-09-12T23:40:46;6.72;;;6.18;;
23730;SDS011;12046;44.702;10.622;2023-09-12T23:43:32;7.35;;;6.65;;
23730;SDS011;12046;44.702;10.622;2023-09-12T23:52:14;7.28;;;6.70;;
23730;SDS011;12046;44.702;10.622;2023-09-12T23:57:42;6.72;;;6.18;;
